Time;durP1;ratioP1;P1;durP2;ratioP2;P2;SDS_P1;SDS_P2;PMS_P1;PMS_P2;Temp;Humidity;BMP_temperature;BMP_pressure;BME280_temperature;BME280_humidity;BME280_pressure;Samples;Min_cycle;Max_cycle;Signal;HPM_P1;HPM_P2
2022/01/05 00:01:25;;;;;;;0.40;0.40;;;;;;;4.62;78.97;99538.41;5141038;28;20027;-81
2022/01/05 00:03:55;;;;;;;0.50;0.50;;;;;;;4.63;79.01;99535.78;5140614;28;20034;-82
2022/01/05 00:06:26;;;;;;;0.40;0.40;;;;;;;4.68;78.64;99536.53;5162865;28;20035;-83
2022/01/05 00:08:57;;;;;;;0.40;0.40;;;;;;;4.75;78.83;99539.84;5154133;28;20426;-80
2022/01/05 00:11:27;;;;;;;0.40;0.40;;;;;;;4.68;78.78;99543.47;5152713;28;20031;-80
2022/01/05 00:13:58;;;;;;;0.50;0.50;;;;;;;4.61;79.02;99545.34;5153511;28;20026;-81
2022/01/05 00:16:29;;;;;;;0.40;0.40;;;;;;;4.56;79.14;99544.59;5138053;28;20055;-81
2022/01/05 00:18:59;;;;;;;0.50;0.50;;;;;;;4.61;79.54;99534.94;5139290;28;20033;-80
2022/01/05 00:21:30;;;;;;;0.75;0.75;;;;;;;4.73;79.07;99539.03;5162303;28;20041;-80
2022/01/05 00:24:00;;;;;;;0.60;0.60;;;;;;;4.72;78.74;99545.09;5174765;28;20120;-82
2022/01/05 00:26:31;;;;;;;0.65;0.65;;;;;;;4.72;78.82;99543.38;5150602;28;20032;-83
2022/01/05 00:29:03;;;;;;;0.60;0.60;;;;;;;4.63;78.93;99543.56;5137295;28;20464;-82
2022/01/05 00:31:33;;;;;;;0.50;0.50;;;;;;;4.73;79.27;99549.41;5149189;28;20550;-82
2022/01/05 00:34:04;;;;;;;0.52;0.52;;;;;;;4.51;80.32;99554.22;5134143;28;20053;-80
2022/01/05 00:36:37;;;;;;;0.50;0.50;;;;;;;4.50;79.81;99548.16;5128631;28;20308;-81
2022/01/05 00:39:08;;;;;;;;;;;;;;;4.62;79.89;99549.66;5147255;28;20518;-81
2022/01/05 00:41:38;;;;;;;0.40;0.40;;;;;;;4.08;80.54;99542.94;5145417;28;19918;-84
2022/01/05 00:44:09;;;;;;;0.60;0.60;;;;;;;4.04;80.92;99547.34;5150722;28;20137;-80
2022/01/05 00:46:39;;;;;;;0.40;0.40;;;;;;;3.92;81.35;99556.22;5130404;28;20048;-81
2022/01/05 00:49:10;;;;;;;0.40;0.40;;;;;;;4.00;81.54;99553.50;5159721;28;20604;-84
2022/01/05 00:51:41;;;;;;;0.40;0.40;;;;;;;4.06;80.91;99548.19;5170699;28;20025;-84
2022/01/05 00:54:11;;;;;;;0.40;0.40;;;;;;;3.99;81.33;99549.19;5164853;28;20041;-79
2022/01/05 00:56:42;;;;;;;0.60;0.60;;;;;;;4.01;82.20;99557.78;5136262;28;20026;-82
2022/01/05 00:59:12;;;;;;;0.55;0.55;;;;;;;4.12;81.60;99546.34;5154269;28;20050;-80
2022/01/05 01:01:43;;;;;;;0.70;0.70;;;;;;;4.17;81.03;99550.56;5157424;28;20058;-81
2022/01/05 01:04:13;;;;;;;0.50;0.50;;;;;;;3.97;81.27;99550.94;5149233;28;20095;-82
2022/01/05 01:06:44;;;;;;;0.60;0.60;;;;;;;3.97;81.91;99547.50;5149232;28;20267;-80
2022/01/05 01:09:15;;;;;;;0.65;0.65;;;;;;;3.98;81.56;99549.19;5176569;28;20047;-84
2022/01/05 01:11:45;;;;;;;0.40;0.40;;;;;;;3.84;81.60;99547.72;5152680;28;20062;-81
2022/01/05 01:14:16;;;;;;;0.90;0.90;;;;;;;3.92;82.37;99555.38;5170760;28;20060;-80
2022/01/05 01:16:47;;;;;;;0.40;0.40;;;;;;;4.17;81.40;99557.50;5163777;28;20073;-80
2022/01/05 01:19:17;;;;;;;0.60;0.60;;;;;;;3.91;82.37;99564.03;5178886;28;20053;-80
2022/01/05 01:21:48;;;;;;;0.40;0.40;;;;;;;3.62;82.32;99571.47;5152657;28;20550;-80
2022/01/05 01:24:18;;;;;;;0.50;0.50;;;;;;;3.61;82.47;99572.34;5172346;28;20045;-81
2022/01/05 01:26:49;;;;;;;0.50;0.50;;;;;;;3.49;83.17;99566.50;5138429;28;20040;-81
2022/01/05 01:29:22;;;;;;;0.40;0.40;;;;;;;3.47;83.44;99569.97;5174167;28;20038;-82
2022/01/05 01:31:52;;;;;;;1.40;1.30;;;;;;;3.72;82.77;99571.31;5150705;28;20108;-81
2022/01/05 01:34:23;;;;;;;0.55;0.55;;;;;;;3.64;82.55;99579.22;5135763;28;20050;-81
2022/01/05 01:36:53;;;;;;;0.40;0.40;;;;;;;3.49;83.35;99579.47;5138053;28;20053;-83
2022/01/05 01:39:24;;;;;;;0.50;0.50;;;;;;;3.45;83.26;99581.25;5174823;28;20049;-81
2022/01/05 01:41:54;;;;;;;0.77;0.77;;;;;;;3.49;83.09;99577.72;5161216;28;20481;-82
2022/01/05 01:44:25;;;;;;;0.50;0.50;;;;;;;3.56;82.63;99568.09;5184760;28;20402;-81
2022/01/05 01:46:55;;;;;;;6.18;2.10;;;;;;;3.51;82.91;99575.13;5171161;28;20324;-81
2022/01/05 01:49:29;;;;;;;0.57;0.57;;;;;;;3.69;83.40;99569.59;5156599;28;20124;-81
2022/01/05 01:51:59;;;;;;;0.40;0.40;;;;;;;3.52;82.48;99576.81;5184937;28;20398;-84
2022/01/05 01:54:30;;;;;;;0.50;0.50;;;;;;;3.65;83.11;99580.06;5161495;28;20109;-82
2022/01/05 01:57:02;;;;;;;0.40;0.40;;;;;;;3.73;82.72;99586.84;5148663;28;20068;-82
2022/01/05 01:59:33;;;;;;;0.40;0.40;;;;;;;3.79;81.79;99588.47;5162878;28;20039;-83
2022/01/05 02:02:05;;;;;;;0.40;0.40;;;;;;;3.80;82.54;99587.59;5138688;28;20021;-81
2022/01/05 02:04:36;;;;;;;0.90;0.85;;;;;;;3.83;82.11;99582.34;5168978;28;20034;-81
2022/01/05 02:07:07;;;;;;;0.55;0.55;;;;;;;3.81;82.05;99594.47;5142879;28;20558;-83
2022/01/05 02:09:39;;;;;;;3.50;1.50;;;;;;;3.81;82.55;99584.09;5151990;28;20030;-81
2022/01/05 02:12:10;;;;;;;1.07;1.07;;;;;;;3.86;81.73;99592.69;5149168;28;20022;-81
2022/01/05 02:14:41;;;;;;;0.68;0.68;;;;;;;3.75;81.88;99592.00;5162328;28;20309;-83
2022/01/05 02:17:19;;;;;;;0.40;0.40;;;;;;;3.66;82.71;99587.84;5169923;28;20037;-83
2022/01/05 02:19:52;;;;;;;0.88;0.88;;;;;;;3.75;82.47;99595.47;5154225;28;20042;-83
2022/01/05 02:22:23;;;;;;;;;;;;;;;3.50;82.92;99594.16;5159778;28;20058;-83
2022/01/05 02:24:53;;;;;;;0.47;0.47;;;;;;;3.71;82.13;99598.97;5154020;28;19917;-82
2022/01/05 02:27:23;;;;;;;0.60;0.60;;;;;;;3.62;81.97;99606.91;5167853;28;20042;-81
2022/01/05 02:29:54;;;;;;;0.60;0.60;;;;;;;3.79;82.09;99596.25;5139352;28;20038;-81
2022/01/05 02:32:27;;;;;;;0.40;0.40;;;;;;;3.66;81.97;99603.41;5158902;28;20049;-82
2022/01/05 02:34:58;;;;;;;1.15;1.05;;;;;;;3.70;81.88;99618.00;5165301;28;20286;-83
2022/01/05 02:37:29;;;;;;;1.05;1.05;;;;;;;3.58;82.14;99613.03;5140570;28;20101;-81
2022/01/05 02:39:59;;;;;;;0.40;0.40;;;;;;;3.83;81.72;99623.00;5172639;28;20034;-81
2022/01/05 02:42:30;;;;;;;0.40;0.40;;;;;;;3.70;82.26;99623.19;5150118;28;20079;-82
2022/01/05 02:45:04;;;;;;;1.13;1.13;;;;;;;3.75;81.31;99631.78;5152021;28;20062;-81
2022/01/05 02:47:35;;;;;;;1.02;1.02;;;;;;;3.67;81.17;99633.66;5129649;28;20026;-81
2022/01/05 02:50:11;;;;;;;0.60;0.60;;;;;;;3.41;80.98;99634.91;5151273;28;20049;-82
2022/01/05 02:52:42;;;;;;;0.40;0.40;;;;;;;3.55;81.48;99644.22;5147134;28;20037;-81
2022/01/05 02:55:12;;;;;;;0.80;0.80;;;;;;;3.46;81.37;99635.69;5145842;28;20266;-82
2022/01/05 02:57:43;;;;;;;0.60;0.60;;;;;;;3.55;81.53;99639.03;5181546;28;20300;-82
2022/01/05 03:00:16;;;;;;;0.50;0.50;;;;;;;3.54;80.67;99642.50;5150413;28;20038;-80
2022/01/05 03:02:49;;;;;;;1.80;1.70;;;;;;;3.56;80.99;99651.09;5179625;28;20029;-81
2022/01/05 03:05:20;;;;;;;1.20;0.85;;;;;;;3.59;81.04;99653.66;5179438;28;20049;-82
2022/01/05 03:07:50;;;;;;;0.45;0.45;;;;;;;3.54;80.39;99660.66;5132833;28;20122;-80
2022/01/05 03:10:23;;;;;;;1.95;1.38;;;;;;;3.40;80.07;99661.72;5151394;28;20076;-81
2022/01/05 03:12:54;;;;;;;0.90;0.90;;;;;;;3.57;80.36;99663.19;5136203;28;20045;-81
2022/01/05 03:15:24;;;;;;;0.50;0.50;;;;;;;3.52;80.53;99663.28;5158474;28;20050;-80
2022/01/05 03:17:55;;;;;;;0.40;0.40;;;;;;;3.34;80.19;99677.38;5148892;28;20639;-81
2022/01/05 03:20:30;;;;;;;0.40;0.40;;;;;;;3.21;80.67;99678.41;5164030;28;20061;-82
2022/01/05 03:23:03;;;;;;;0.70;0.70;;;;;;;3.07;80.99;99679.44;5153628;28;20030;-82
2022/01/05 03:25:34;;;;;;;5.15;2.40;;;;;;;2.90;80.58;99682.25;5140160;28;20116;-82
2022/01/05 03:28:04;;;;;;;0.60;0.60;;;;;;;3.02;81.34;99680.38;5181074;28;20026;-82
2022/01/05 03:30:38;;;;;;;1.85;1.30;;;;;;;3.11;81.18;99686.28;5134933;28;20034;-81
2022/01/05 03:33:11;;;;;;;;;;;;;;;3.08;81.14;99686.34;5146180;28;20081;-82
2022/01/05 03:35:45;;;;;;;0.70;0.70;;;;;;;3.08;80.94;99696.72;5134516;28;19921;-82
2022/01/05 03:38:17;;;;;;;2.58;2.38;;;;;;;3.05;81.13;99696.75;5174412;28;20501;-81
2022/01/05 03:40:48;;;;;;;0.68;0.68;;;;;;;2.97;80.35;99699.47;5136558;28;20061;-81
2022/01/05 03:43:19;;;;;;;0.40;0.40;;;;;;;2.93;80.59;99696.91;5152333;28;20403;-81
2022/01/05 03:45:51;;;;;;;0.50;0.50;;;;;;;2.94;81.15;99706.38;5135181;28;20611;-81
2022/01/05 03:48:22;;;;;;;0.43;0.43;;;;;;;3.02;80.20;99704.56;5135275;28;20103;-82
2022/01/05 03:50:52;;;;;;;0.40;0.40;;;;;;;2.97;80.57;99716.72;5150335;28;20038;-82
2022/01/05 03:53:23;;;;;;;0.50;0.50;;;;;;;3.20;80.60;99724.22;5144434;28;20047;-81
2022/01/05 03:55:53;;;;;;;0.50;0.50;;;;;;;2.94;80.35;99730.56;5136080;28;20097;-81
2022/01/05 03:58:24;;;;;;;0.40;0.40;;;;;;;2.95;80.04;99736.59;5138385;28;20057;-81
2022/01/05 04:00:55;;;;;;;0.40;0.40;;;;;;;2.93;80.03;99735.78;5137967;28;20061;-81
2022/01/05 04:03:25;;;;;;;0.52;0.52;;;;;;;2.95;79.84;99742.66;5153170;28;20076;-83
2022/01/05 04:05:56;;;;;;;0.82;0.82;;;;;;;2.92;80.23;99749.63;5156075;28;20499;-81
2022/01/05 04:08:26;;;;;;;1.58;1.45;;;;;;;3.01;79.80;99751.22;5129236;28;20033;-81
2022/01/05 04:10:57;;;;;;;0.43;0.43;;;;;;;2.80;79.46;99753.19;5187188;28;20050;-81
2022/01/05 04:13:27;;;;;;;0.40;0.40;;;;;;;2.72;79.07;99758.44;5161834;28;20149;-81
2022/01/05 04:15:58;;;;;;;0.50;0.50;;;;;;;2.63;79.87;99762.00;5133885;28;20421;-83
2022/01/05 04:18:28;;;;;;;0.50;0.50;;;;;;;2.64;79.79;99762.84;5168924;28;20030;-82
2022/01/05 04:20:59;;;;;;;0.50;0.50;;;;;;;2.61;79.52;99768.94;5151288;28;20487;-82
2022/01/05 04:23:29;;;;;;;0.88;0.88;;;;;;;2.60;79.63;99781.91;5153532;28;20053;-81
2022/01/05 04:26:00;;;;;;;0.75;0.65;;;;;;;2.59;79.36;99785.34;5151744;28;20410;-83
2022/01/05 04:28:31;;;;;;;1.25;1.25;;;;;;;2.61;79.13;99784.47;5134569;28;20483;-82
2022/01/05 04:31:01;;;;;;;1.65;1.10;;;;;;;2.43;79.17;99779.44;5148384;28;20042;-82
2022/01/05 04:33:32;;;;;;;1.17;1.17;;;;;;;2.43;79.48;99782.03;5135934;28;20033;-80
2022/01/05 04:36:02;;;;;;;0.88;0.88;;;;;;;2.38;79.11;99787.25;5146698;28;20061;-84
2022/01/05 04:38:33;;;;;;;0.40;0.40;;;;;;;2.48;79.46;99785.47;5164030;28;20262;-81
2022/01/05 04:41:04;;;;;;;4.35;0.80;;;;;;;2.56;79.50;99790.56;5126287;28;20069;-82
2022/01/05 04:43:34;;;;;;;0.95;0.95;;;;;;;2.49;79.63;99794.91;5151677;28;20081;-84
2022/01/05 04:46:05;;;;;;;0.50;0.50;;;;;;;2.37;79.65;99795.88;5154779;28;20041;-81
2022/01/05 04:48:35;;;;;;;1.33;1.20;;;;;;;2.40;79.79;99789.84;5148428;28;20060;-83
2022/01/05 04:51:06;;;;;;;1.08;1.08;;;;;;;2.25;79.83;99793.41;5142790;28;20052;-82
2022/01/05 04:53:36;;;;;;;4.72;2.38;;;;;;;2.19;79.92;99791.72;5143018;28;20040;-81
2022/01/05 04:56:07;;;;;;;0.40;0.40;;;;;;;2.18;79.96;99801.22;5167598;28;20042;-83
2022/01/05 04:58:37;;;;;;;0.98;0.98;;;;;;;2.34;79.70;99812.31;5153474;28;20606;-80
2022/01/05 05:01:08;;;;;;;9.35;2.95;;;;;;;2.26;79.78;99814.09;5167281;28;20046;-80
2022/01/05 05:03:38;;;;;;;0.63;0.63;;;;;;;2.18;79.68;99806.41;5161585;28;20027;-80
2022/01/05 05:06:09;;;;;;;0.52;0.52;;;;;;;2.08;79.46;99799.56;5171847;28;20038;-82
2022/01/05 05:08:39;;;;;;;0.70;0.70;;;;;;;1.97;79.86;99809.13;5154499;28;20045;-82
2022/01/05 05:11:10;;;;;;;0.50;0.50;;;;;;;1.95;80.41;99813.44;5145233;28;20046;-82
2022/01/05 05:13:40;;;;;;;1.00;1.00;;;;;;;1.91;79.96;99811.75;5175728;28;20045;-82
2022/01/05 05:16:11;;;;;;;0.60;0.60;;;;;;;2.02;80.58;99810.81;5148748;28;20034;-81
2022/01/05 05:18:41;;;;;;;0.50;0.50;;;;;;;1.95;80.39;99809.16;5146246;28;20052;-83
2022/01/05 05:21:12;;;;;;;0.93;0.93;;;;;;;1.99;79.58;99813.41;5160522;28;20042;-82
2022/01/05 05:23:42;;;;;;;9.43;2.60;;;;;;;1.99;79.91;99809.97;5145804;28;20042;-81
2022/01/05 05:26:13;;;;;;;0.63;0.63;;;;;;;1.93;79.62;99804.84;5159358;28;20048;-81
2022/01/05 05:28:43;;;;;;;0.77;0.77;;;;;;;1.94;80.06;99812.59;5133575;28;20431;-82
2022/01/05 05:31:14;;;;;;;0.40;0.40;;;;;;;1.98;80.40;99819.50;5143934;28;20057;-83
2022/01/05 05:33:47;;;;;;;0.60;0.60;;;;;;;1.94;79.72;99809.16;5146372;28;20093;-81
2022/01/05 05:36:18;;;;;;;0.40;0.40;;;;;;;1.81;79.95;99811.81;5144941;28;20048;-81
2022/01/05 05:38:48;;;;;;;0.40;0.40;;;;;;;1.82;79.92;99810.09;5145510;28;20035;-81
2022/01/05 05:41:19;;;;;;;0.43;0.43;;;;;;;1.79;79.97;99810.09;5159806;28;20042;-80
2022/01/05 05:43:49;;;;;;;0.50;0.50;;;;;;;1.77;80.20;99814.41;5155187;28;20041;-78
2022/01/05 05:46:20;;;;;;;0.80;0.80;;;;;;;1.75;80.03;99806.69;5149303;28;20042;-79
2022/01/05 05:48:50;;;;;;;0.88;0.88;;;;;;;1.84;80.14;99811.81;5147936;28;20026;-76
2022/01/05 05:51:21;;;;;;;1.40;1.30;;;;;;;1.76;79.98;99823.91;5164166;28;20049;-77
2022/01/05 05:53:51;;;;;;;0.70;0.70;;;;;;;1.77;80.77;99820.47;5149070;28;20047;-77
2022/01/05 05:56:22;;;;;;;0.50;0.50;;;;;;;1.79;80.03;99829.06;5175695;28;20542;-78
2022/01/05 05:58:52;;;;;;;1.02;0.93;;;;;;;1.79;79.56;99828.22;5161587;28;20034;-77
2022/01/05 06:01:23;;;;;;;0.60;0.60;;;;;;;1.83;79.63;99829.91;5148876;28;20023;-77
2022/01/05 06:03:53;;;;;;;0.98;0.98;;;;;;;1.81;79.74;99829.06;5145877;28;20065;-78
2022/01/05 06:06:24;;;;;;;0.40;0.40;;;;;;;1.73;79.54;99832.56;5172391;28;20033;-79
2022/01/05 06:08:55;;;;;;;0.50;0.50;;;;;;;1.84;80.41;99831.63;5157446;28;20113;-78
2022/01/05 06:11:25;;;;;;;0.50;0.50;;;;;;;1.81;79.33;99832.50;5133813;28;20122;-77
2022/01/05 06:13:56;;;;;;;1.65;1.30;;;;;;;1.81;80.22;99836.84;5162254;28;20040;-77
2022/01/05 06:16:29;;;;;;;0.50;0.50;;;;;;;1.82;79.32;99838.56;5152855;28;20443;-78
2022/01/05 06:18:59;;;;;;;3.92;1.00;;;;;;;1.78;79.68;99840.28;5163848;28;20034;-78
2022/01/05 06:21:30;;;;;;;0.50;0.50;;;;;;;1.82;80.20;99844.56;5148527;28;20022;-77
2022/01/05 06:24:01;;;;;;;1.48;1.38;;;;;;;1.81;79.73;99847.19;5132386;28;20095;-77
2022/01/05 06:26:31;;;;;;;0.50;0.50;;;;;;;1.94;79.68;99853.16;5148684;28;20030;-78
2022/01/05 06:29:02;;;;;;;0.50;0.50;;;;;;;1.84;79.39;99848.03;5135616;28;20030;-78
2022/01/05 06:31:32;;;;;;;0.40;0.40;;;;;;;1.86;79.75;99848.00;5169035;28;20811;-77
2022/01/05 06:34:03;;;;;;;0.52;0.52;;;;;;;1.86;80.02;99860.94;5158734;28;20753;-78
2022/01/05 06:36:33;;;;;;;0.40;0.40;;;;;;;1.87;80.16;99855.75;5179547;28;20358;-77
2022/01/05 06:39:04;;;;;;;0.50;0.50;;;;;;;1.89;80.26;99856.59;5156794;28;20022;-77
2022/01/05 06:41:35;;;;;;;0.70;0.70;;;;;;;1.88;79.33;99860.06;5175888;28;20038;-79
2022/01/05 06:44:05;;;;;;;0.50;0.50;;;;;;;1.90;79.40;99875.59;5154289;28;20030;-77
2022/01/05 06:46:36;;;;;;;0.40;0.40;;;;;;;1.87;79.60;99870.41;5174942;28;20030;-77
2022/01/05 06:49:09;;;;;;;0.50;0.50;;;;;;;1.88;79.93;99872.16;5158351;28;20316;-78
2022/01/05 06:51:40;;;;;;;1.13;1.13;;;;;;;1.96;80.07;99872.09;5129843;28;20038;-78
2022/01/05 06:54:10;;;;;;;0.50;0.50;;;;;;;1.92;79.84;99886.75;5143365;28;20491;-78
2022/01/05 06:56:41;;;;;;;0.50;0.50;;;;;;;1.91;80.01;99884.19;5168736;28;20451;-80
2022/01/05 06:59:11;;;;;;;0.50;0.50;;;;;;;1.93;80.21;99887.66;5144341;28;20493;-78
2022/01/05 07:01:42;;;;;;;2.70;2.35;;;;;;;1.95;80.17;99891.06;5146362;28;20030;-77
2022/01/05 07:04:12;;;;;;;0.47;0.47;;;;;;;1.90;79.64;99893.69;5154079;28;20033;-78
2022/01/05 07:06:43;;;;;;;0.40;0.40;;;;;;;1.99;80.05;99893.63;5166711;28;20042;-77
2022/01/05 07:09:13;;;;;;;0.82;0.82;;;;;;;1.91;80.20;99900.56;5149729;28;20053;-77
2022/01/05 07:11:44;;;;;;;0.50;0.50;;;;;;;1.88;79.66;99896.28;5163137;28;20045;-77
2022/01/05 07:14:14;;;;;;;1.95;1.85;;;;;;;1.90;80.49;99891.09;5158776;28;20058;-79
2022/01/05 07:16:45;;;;;;;0.50;0.50;;;;;;;1.91;80.15;99895.41;5165881;28;20128;-77
2022/01/05 07:19:16;;;;;;;0.70;0.70;;;;;;;1.90;80.10;99888.53;5148188;28;20057;-77
2022/01/05 07:21:47;;;;;;;0.50;0.50;;;;;;;1.94;80.82;99891.94;5147268;28;20037;-77
2022/01/05 07:24:19;;;;;;;1.17;1.17;;;;;;;1.95;80.61;99906.59;5175839;28;20515;-77
2022/01/05 07:26:50;;;;;;;1.13;1.13;;;;;;;1.87;81.16;99901.47;5154510;28;20487;-77
2022/01/05 07:29:20;;;;;;;0.85;0.85;;;;;;;1.95;81.23;99906.59;5134502;28;20061;-77
2022/01/05 07:31:51;;;;;;;0.40;0.40;;;;;;;1.95;80.94;99919.53;5123636;28;20638;-79
2022/01/05 07:34:21;;;;;;;2.20;2.05;;;;;;;1.89;81.26;99903.16;5160058;28;20145;-78
2022/01/05 07:36:52;;;;;;;0.63;0.63;;;;;;;1.95;81.19;99916.94;5173118;28;20026;-78
2022/01/05 07:39:22;;;;;;;0.40;0.40;;;;;;;1.94;80.80;99915.25;5130126;28;20077;-78
2022/01/05 07:41:53;;;;;;;0.80;0.80;;;;;;;1.96;80.87;99914.34;5149762;28;20045;-78
2022/01/05 07:44:24;;;;;;;0.43;0.43;;;;;;;1.95;81.15;99925.56;5161783;28;20034;-78
2022/01/05 07:46:54;;;;;;;0.60;0.60;;;;;;;1.93;80.99;99929.88;5150510;28;20100;-77
2022/01/05 07:49:25;;;;;;;1.10;1.10;;;;;;;1.91;81.32;99926.44;5165114;28;20499;-77
2022/01/05 07:51:55;;;;;;;0.50;0.50;;;;;;;1.95;81.42;99922.09;5150098;28;20045;-78
2022/01/05 07:54:29;;;;;;;1.33;1.33;;;;;;;1.94;81.27;99926.44;5171485;28;20046;-78
2022/01/05 07:56:59;;;;;;;0.55;0.55;;;;;;;1.96;81.47;99929.00;5152346;28;20394;-77
2022/01/05 07:59:30;;;;;;;0.50;0.50;;;;;;;1.95;81.36;99933.34;5150247;28;20042;-79
2022/01/05 08:02:04;;;;;;;;;;;;;;;2.02;81.52;99945.38;5152756;28;20116;-78
2022/01/05 08:04:34;;;;;;;1.13;1.08;;;;;;;1.96;81.34;99945.41;5175463;28;19949;-78
2022/01/05 08:07:05;;;;;;;1.23;1.23;;;;;;;1.97;81.25;99949.72;5147724;28;20034;-78
2022/01/05 08:09:35;;;;;;;0.45;0.45;;;;;;;2.10;81.48;99955.69;5125086;28;20048;-78
2022/01/05 08:12:06;;;;;;;0.93;0.90;;;;;;;2.04;81.04;99963.47;5158386;28;20490;-78
2022/01/05 08:14:37;;;;;;;1.60;1.50;;;;;;;2.06;81.21;99961.75;5156666;28;20779;-78
2022/01/05 08:17:07;;;;;;;0.50;0.50;;;;;;;1.99;81.61;99955.72;5149892;28;20052;-78
2022/01/05 08:19:38;;;;;;;0.50;0.50;;;;;;;1.95;81.84;99959.22;5146775;28;20169;-78
2022/01/05 08:22:12;;;;;;;1.27;1.05;;;;;;;2.01;81.30;99964.34;5162389;28;20041;-78
2022/01/05 08:24:42;;;;;;;0.50;0.50;;;;;;;1.96;81.27;99965.22;5143295;28;20127;-78
2022/01/05 08:27:13;;;;;;;2.05;1.88;;;;;;;2.07;81.28;99967.81;5151605;28;20058;-79
2022/01/05 08:29:43;;;;;;;0.40;0.40;;;;;;;1.97;81.66;99969.53;5163911;28;20046;-78
2022/01/05 08:32:14;;;;;;;0.40;0.40;;;;;;;2.08;81.42;99972.06;5144734;28;20037;-79
2022/01/05 08:34:44;;;;;;;2.40;1.60;;;;;;;2.02;81.05;99970.41;5154440;28;20200;-78
2022/01/05 08:37:16;;;;;;;0.50;0.50;;;;;;;2.02;81.64;99980.75;5162648;28;20422;-78
2022/01/05 08:39:49;;;;;;;0.43;0.43;;;;;;;2.05;81.47;99967.78;5154940;28;20054;-77
2022/01/05 08:42:21;;;;;;;1.63;1.52;;;;;;;2.07;81.61;99976.41;5172967;28;20393;-77
2022/01/05 08:44:54;;;;;;;0.57;0.57;;;;;;;2.03;81.96;99987.63;5160401;28;20046;-78
2022/01/05 08:47:25;;;;;;;3.92;1.75;;;;;;;2.11;81.60;99978.09;5141791;28;20038;-77
2022/01/05 08:49:55;;;;;;;0.50;0.50;;;;;;;2.11;82.17;99985.88;5155724;28;20042;-77
2022/01/05 08:52:25;;;;;;;3.13;2.50;;;;;;;2.16;81.62;99986.72;5160634;28;20136;-77
2022/01/05 08:54:56;;;;;;;0.60;0.60;;;;;;;2.20;81.26;99992.75;5157170;28;20042;-78
2022/01/05 08:57:27;;;;;;;1.05;1.05;;;;;;;2.17;81.11;99993.63;5176537;28;20530;-77
2022/01/05 08:59:57;;;;;;;0.40;0.40;;;;;;;2.16;81.33;99991.91;5155620;28;20045;-77
2022/01/05 09:02:28;;;;;;;0.70;0.70;;;;;;;2.09;81.46;99991.91;5127624;28;20038;-78
2022/01/05 09:04:59;;;;;;;2.08;1.67;;;;;;;2.14;81.77;100000.53;5170851;28;20061;-79
2022/01/05 09:07:29;;;;;;;1.05;1.05;;;;;;;2.14;81.84;100010.91;5135610;28;20525;-79
2022/01/05 09:10:00;;;;;;;0.40;0.40;;;;;;;2.20;81.66;100005.69;5159215;28;20112;-77
2022/01/05 09:12:31;;;;;;;1.50;1.40;;;;;;;2.26;81.64;100002.22;5157182;28;20034;-79
2022/01/05 09:15:04;;;;;;;0.85;0.85;;;;;;;2.28;81.80;99997.88;5146651;28;20041;-77
2022/01/05 09:17:35;;;;;;;0.60;0.60;;;;;;;2.28;81.60;99993.56;5141143;28;20030;-78
2022/01/05 09:20:07;;;;;;;0.50;0.50;;;;;;;2.27;81.37;100002.19;5146088;28;20045;-77
2022/01/05 09:22:38;;;;;;;1.27;1.23;;;;;;;2.28;81.85;99998.75;5147396;28;20122;-77
2022/01/05 09:25:11;;;;;;;0.47;0.47;;;;;;;2.32;81.31;99999.59;5153140;28;20112;-77
2022/01/05 09:27:41;;;;;;;0.50;0.50;;;;;;;2.31;81.93;99997.88;5134840;28;20038;-78
2022/01/05 09:30:16;;;;;;;0.52;0.52;;;;;;;2.33;81.59;99994.41;5131132;28;20056;-77
2022/01/05 09:32:50;;;;;;;0.43;0.43;;;;;;;2.32;81.61;99989.25;5176827;28;20045;-79
2022/01/05 09:35:23;;;;;;;0.50;0.50;;;;;;;2.36;82.01;99990.94;5151187;28;20042;-77
2022/01/05 09:43:23;;;;;;;0.70;0.70;;;;;;;2.45;81.92;100006.41;5156095;28;20038;-76
2022/01/05 09:46:09;;;;;;;0.47;0.47;;;;;;;2.44;81.16;100020.22;5165913;28;20044;-77
2022/01/05 09:49:11;;;;;;;2.83;1.25;;;;;;;2.48;81.79;100027.13;5125713;28;20319;-77
2022/01/05 09:51:42;;;;;;;0.95;0.95;;;;;;;2.56;81.44;100023.63;5126355;28;20474;-76
2022/01/05 09:54:14;;;;;;;0.43;0.43;;;;;;;2.59;81.97;100034.00;5145140;28;20534;-77
2022/01/05 09:56:44;;;;;;;1.02;1.02;;;;;;;2.60;81.63;100033.13;5144507;28;20376;-77
2022/01/05 09:59:15;;;;;;;0.82;0.80;;;;;;;2.63;81.67;100039.16;5157829;28;20105;-79
2022/01/05 10:01:46;;;;;;;0.57;0.57;;;;;;;2.63;81.67;100035.69;5143071;28;20022;-77
2022/01/05 10:04:17;;;;;;;1.42;1.33;;;;;;;2.74;82.01;100049.44;5143907;28;20058;-79
2022/01/05 10:06:47;;;;;;;1.02;1.02;;;;;;;2.67;81.90;100048.59;5159457;28;20026;-78
2022/01/05 10:09:18;;;;;;;0.60;0.60;;;;;;;2.67;81.46;100043.44;5147189;28;20408;-78
2022/01/05 10:11:48;;;;;;;0.50;0.50;;;;;;;2.73;81.97;100044.28;5188851;28;20030;-77
2022/01/05 10:14:19;;;;;;;0.50;0.50;;;;;;;2.73;81.40;100047.72;5147187;28;20085;-78
2022/01/05 10:17:08;;;;;;;0.50;0.50;;;;;;;2.74;81.79;100044.25;5169215;28;20076;-78
2022/01/05 10:19:40;;;;;;;0.73;0.73;;;;;;;2.75;81.80;100046.00;5163508;28;20042;-77
2022/01/05 10:22:40;;;;;;;0.50;0.50;;;;;;;2.77;81.79;100040.78;5144170;28;20046;-78
2022/01/05 10:25:20;;;;;;;0.50;0.50;;;;;;;2.76;81.79;100054.59;5127665;28;20041;-78
2022/01/05 10:27:59;;;;;;;1.08;1.08;;;;;;;2.73;81.21;100050.31;5164865;28;20046;-78
2022/01/05 10:30:38;;;;;;;2.78;1.88;;;;;;;2.75;80.99;100045.09;5148429;28;20096;-78
2022/01/05 10:33:10;;;;;;;0.40;0.40;;;;;;;2.78;81.51;100050.28;5164963;28;20034;-77
2022/01/05 10:35:55;;;;;;;1.83;1.25;;;;;;;2.82;80.96;100044.19;5152738;28;20058;-78
2022/01/05 10:38:29;;;;;;;1.23;1.20;;;;;;;2.86;81.00;100042.44;5160414;28;20157;-77
2022/01/05 10:41:15;;;;;;;6.90;1.95;;;;;;;2.88;81.34;100027.75;5145690;28;20047;-77
2022/01/05 10:44:24;;;;;;;1.13;1.13;;;;;;;2.92;81.00;100052.81;5148217;28;20059;-77
2022/01/05 10:46:58;;;;;;;1.02;1.02;;;;;;;3.00;81.40;100038.06;5166863;28;20045;-78
2022/01/05 10:49:31;;;;;;;;;;;;;;;3.03;81.30;100040.59;5151040;28;20039;-78
2022/01/05 10:52:25;;;;;;;2.70;1.93;;;;;;;3.01;81.63;100044.97;5159225;28;19964;-78
2022/01/05 10:55:17;;;;;;;0.40;0.40;;;;;;;3.09;81.92;100050.06;5161158;28;20313;-78
2022/01/05 10:57:54;;;;;;;0.40;0.40;;;;;;;3.05;81.33;100053.56;5146151;28;20026;-78
2022/01/05 11:00:42;;;;;;;0.88;0.88;;;;;;;3.19;81.08;100061.22;5172942;28;20030;-79
2022/01/05 11:03:35;;;;;;;0.85;0.85;;;;;;;3.20;80.82;100057.78;5158922;28;20030;-77
2022/01/05 11:06:17;;;;;;;2.33;2.15;;;;;;;3.27;81.11;100059.44;5156486;28;20070;-77
2022/01/05 11:09:04;;;;;;;0.80;0.80;;;;;;;3.27;81.68;100059.44;5157539;28;20319;-78
2022/01/05 11:11:36;;;;;;;0.47;0.47;;;;;;;3.31;80.72;100061.16;5180960;28;20034;-78
2022/01/05 11:14:18;;;;;;;0.60;0.60;;;;;;;3.30;81.36;100059.44;5170885;28;20033;-77
2022/01/05 11:16:51;;;;;;;0.50;0.50;;;;;;;3.35;80.70;100057.66;5162367;28;20545;-78
2022/01/05 11:19:22;;;;;;;2.17;1.42;;;;;;;3.33;80.68;100048.16;5171076;28;20054;-80
2022/01/05 11:22:02;;;;;;;0.50;0.50;;;;;;;3.37;81.24;100047.28;5170665;28;20084;-78
2022/01/05 11:24:35;;;;;;;0.60;0.60;;;;;;;3.41;81.07;100055.03;5163621;28;20362;-78
2022/01/05 11:27:33;;;;;;;0.50;0.50;;;;;;;3.45;80.68;100064.50;5154908;28;20030;-77
2022/01/05 11:30:05;;;;;;;0.80;0.80;;;;;;;3.51;81.01;100031.59;5163613;28;20069;-78
2022/01/05 11:32:37;;;;;;;0.70;0.70;;;;;;;3.46;80.92;100047.22;5169935;28;20034;-78
2022/01/05 11:35:08;;;;;;;0.63;0.60;;;;;;;3.46;81.17;100050.66;5148186;28;20418;-77
2022/01/05 11:37:41;;;;;;;0.65;0.65;;;;;;;3.52;81.47;100051.47;5132319;28;20034;-78
2022/01/05 11:40:13;;;;;;;1.38;1.30;;;;;;;3.50;81.17;100045.44;5143165;28;20495;-78
2022/01/05 11:42:48;;;;;;;0.50;0.50;;;;;;;3.51;81.74;100040.25;5148699;28;20038;-77
2022/01/05 11:45:29;;;;;;;1.05;1.05;;;;;;;3.59;82.00;100037.59;5146366;28;20037;-78
2022/01/05 11:48:23;;;;;;;5.00;2.08;;;;;;;3.72;81.47;100053.91;5148333;28;20129;-78
2022/01/05 11:51:00;;;;;;;0.55;0.55;;;;;;;3.80;81.09;100059.00;5179749;28;20100;-77
2022/01/05 11:53:38;;;;;;;0.60;0.60;;;;;;;3.82;80.33;100057.25;5153526;28;20034;-78
2022/01/05 11:56:13;;;;;;;0.68;0.68;;;;;;;3.85;80.62;100054.59;5126755;28;20038;-78
2022/01/05 11:59:01;;;;;;;0.50;0.50;;;;;;;3.80;80.71;100048.63;5181980;28;20039;-79
2022/01/05 12:01:37;;;;;;;0.40;0.40;;;;;;;3.77;80.58;100049.50;5158968;28;20046;-78
2022/01/05 12:04:11;;;;;;;0.50;0.50;;;;;;;3.69;80.59;100044.38;5172448;28;20393;-78
2022/01/05 12:06:45;;;;;;;0.60;0.60;;;;;;;3.72;80.55;100057.34;5132384;28;20034;-78
2022/01/05 12:09:20;;;;;;;;;;;;;;;3.77;80.88;100062.50;5156416;28;20136;-79
2022/01/05 12:11:50;;;;;;;0.82;0.82;;;;;;;3.81;80.47;100071.09;5131569;28;19921;-78